sensor_id;sensor_type;location;lat;lon;timestamp;pressure;altitude;pressure_sealevel;temperature;humidity
77799;BME280;66989;50.426;15.352;2023-07-31T00:00:11;98039.09;;;15.68;94.61
77799;BME280;66989;50.426;15.352;2023-07-31T00:02:37;98047.44;;;15.73;95.43
77799;BME280;66989;50.426;15.352;2023-07-31T00:05:03;98041.28;;;15.73;94.71
77799;BME280;66989;50.426;15.352;2023-07-31T00:07:28;98040.63;;;15.71;94.72
77799;BME280;66989;50.426;15.352;2023-07-31T00:09:54;98032.09;;;15.67;94.89
77799;BME280;66989;50.426;15.352;2023-07-31T00:12:20;98040.09;;;15.67;95.00
77799;BME280;66989;50.426;15.352;2023-07-31T00:14:45;98039.25;;;15.67;95.07
77799;BME280;66989;50.426;15.352;2023-07-31T00:17:11;98039.41;;;15.65;95.47
77799;BME280;66989;50.426;15.352;2023-07-31T00:19:36;98040.38;;;15.64;95.38
77799;BME280;66989;50.426;15.352;2023-07-31T00:22:02;98039.72;;;15.62;95.04
77799;BME280;66989;50.426;15.352;2023-07-31T00:24:27;98038.34;;;15.58;95.29
77799;BME280;66989;50.426;15.352;2023-07-31T00:26:52;98039.63;;;15.54;95.26
77799;BME280;66989;50.426;15.352;2023-07-31T00:29:18;98038.13;;;15.51;95.66
77799;BME280;66989;50.426;15.352;2023-07-31T00:31:43;98038.56;;;15.47;95.49
77799;BME280;66989;50.426;15.352;2023-07-31T00:34:09;98043.22;;;15.45;95.51
77799;BME280;66989;50.426;15.352;2023-07-31T00:36:34;98043.34;;;15.43;95.73
77799;BME280;66989;50.426;15.352;2023-07-31T00:38:59;98045.16;;;15.43;95.78
77799;BME280;66989;50.426;15.352;2023-07-31T00:41:25;98037.19;;;15.43;96.08
77799;BME280;66989;50.426;15.352;2023-07-31T00:43:50;98045.34;;;15.41;95.61
77799;BME280;66989;50.426;15.352;2023-07-31T00:46:15;98043.84;;;15.39;95.89
77799;BME280;66989;50.426;15.352;2023-07-31T00:48:41;98045.94;;;15.35;96.28
77799;BME280;66989;50.426;15.352;2023-07-31T00:51:07;98052.53;;;15.31;96.36
77799;BME280;66989;50.426;15.352;2023-07-31T00:53:33;98051.03;;;15.28;95.95
77799;BME280;66989;50.426;15.352;2023-07-31T00:55:59;98048.13;;;15.22;96.32
77799;BME280;66989;50.426;15.352;2023-07-31T00:58:24;98043.38;;;15.16;96.08
77799;BME280;66989;50.426;15.352;2023-07-31T01:00:50;98050.41;;;15.07;96.26
77799;BME280;66989;50.426;15.352;2023-07-31T01:03:16;98049.06;;;15.03;96.08
77799;BME280;66989;50.426;15.352;2023-07-31T01:08:59;98053.06;;;14.89;96.83
77799;BME280;66989;50.426;15.352;2023-07-31T01:11:28;98047.50;;;14.83;96.69
77799;BME280;66989;50.426;15.352;2023-07-31T01:13:55;98057.03;;;14.75;97.22
77799;BME280;66989;50.426;15.352;2023-07-31T01:16:21;98054.81;;;14.71;97.70
77799;BME280;66989;50.426;15.352;2023-07-31T01:18:46;98054.28;;;14.67;97.78
77799;BME280;66989;50.426;15.352;2023-07-31T01:21:43;98049.41;;;14.63;98.27
77799;BME280;66989;50.426;15.352;2023-07-31T01:24:22;98045.53;;;14.57;98.64
77799;BME280;66989;50.426;15.352;2023-07-31T01:26:56;98040.50;;;14.54;98.48
77799;BME280;66989;50.426;15.352;2023-07-31T01:29:32;98039.44;;;14.47;98.45
77799;BME280;66989;50.426;15.352;2023-07-31T01:32:01;98039.44;;;14.47;98.39
77799;BME280;66989;50.426;15.352;2023-07-31T01:34:28;98038.59;;;14.46;98.19
77799;BME280;66989;50.426;15.352;2023-07-31T01:36:56;98037.38;;;14.41;97.40
77799;BME280;66989;50.426;15.352;2023-07-31T01:39:22;98043.97;;;14.27;97.79
77799;BME280;66989;50.426;15.352;2023-07-31T01:41:47;98041.06;;;14.20;98.26
77799;BME280;66989;50.426;15.352;2023-07-31T01:44:12;98039.94;;;14.13;97.85
77799;BME280;66989;50.426;15.352;2023-07-31T01:46:38;98037.19;;;14.05;98.19
77799;BME280;66989;50.426;15.352;2023-07-31T01:49:03;98030.50;;;14.01;97.57
77799;BME280;66989;50.426;15.352;2023-07-31T01:51:30;98031.34;;;13.92;96.67
77799;BME280;66989;50.426;15.352;2023-07-31T01:53:59;98026.47;;;13.87;96.54
77799;BME280;66989;50.426;15.352;2023-07-31T01:56:24;98035.56;;;13.85;97.36
77799;BME280;66989;50.426;15.352;2023-07-31T01:58:50;98032.31;;;13.81;97.11
77799;BME280;66989;50.426;15.352;2023-07-31T02:01:15;98026.91;;;13.83;97.48
77799;BME280;66989;50.426;15.352;2023-07-31T02:03:40;98033.03;;;13.83;97.31
77799;BME280;66989;50.426;15.352;2023-07-31T02:06:07;98033.88;;;13.84;97.34
77799;BME280;66989;50.426;15.352;2023-07-31T02:08:32;98029.44;;;13.84;97.33
77799;BME280;66989;50.426;15.352;2023-07-31T02:10:58;98029.44;;;13.84;96.44
77799;BME280;66989;50.426;15.352;2023-07-31T02:13:23;98038.47;;;13.82;96.49
77799;BME280;66989;50.426;15.352;2023-07-31T02:15:48;98030.78;;;13.79;96.67
77799;BME280;66989;50.426;15.352;2023-07-31T02:18:14;98031.06;;;13.76;96.03
77799;BME280;66989;50.426;15.352;2023-07-31T02:20:39;98033.16;;;13.72;95.62
77799;BME280;66989;50.426;15.352;2023-07-31T02:23:04;98025.19;;;13.72;95.78
77799;BME280;66989;50.426;15.352;2023-07-31T02:25:30;98026.59;;;13.66;95.52
77799;BME280;66989;50.426;15.352;2023-07-31T02:27:55;98027.75;;;13.64;95.92
77799;BME280;66989;50.426;15.352;2023-07-31T02:30:21;98027.75;;;13.54;95.90
77799;BME280;66989;50.426;15.352;2023-07-31T02:32:46;98034.13;;;13.52;96.66
77799;BME280;66989;50.426;15.352;2023-07-31T02:35:11;98030.25;;;13.46;97.20
77799;BME280;66989;50.426;15.352;2023-07-31T02:37:40;98036.66;;;13.43;97.68
77799;BME280;66989;50.426;15.352;2023-07-31T02:40:06;98034.13;;;13.42;97.54
77799;BME280;66989;50.426;15.352;2023-07-31T02:42:32;98042.38;;;13.39;97.63
77799;BME280;66989;50.426;15.352;2023-07-31T02:44:57;98034.59;;;13.37;97.78
77799;BME280;66989;50.426;15.352;2023-07-31T02:47:22;98028.44;;;13.37;97.72
77799;BME280;66989;50.426;15.352;2023-07-31T02:49:48;98026.75;;;13.36;97.58
77799;BME280;66989;50.426;15.352;2023-07-31T02:52:13;98036.66;;;13.34;97.84
77799;BME280;66989;50.426;15.352;2023-07-31T02:54:38;98035.84;;;13.33;98.08
77799;BME280;66989;50.426;15.352;2023-07-31T02:57:04;98038.88;;;13.29;98.25
77799;BME280;66989;50.426;15.352;2023-07-31T02:59:30;98031.09;;;13.27;98.28
77799;BME280;66989;50.426;15.352;2023-07-31T03:01:55;98038.31;;;13.25;98.65
77799;BME280;66989;50.426;15.352;2023-07-31T03:04:21;98041.13;;;13.24;98.40
77799;BME280;66989;50.426;15.352;2023-07-31T03:06:46;98035.00;;;13.23;99.11
77799;BME280;66989;50.426;15.352;2023-07-31T03:09:11;98030.53;;;13.24;98.97
77799;BME280;66989;50.426;15.352;2023-07-31T03:11:37;98035.00;;;13.23;98.97
77799;BME280;66989;50.426;15.352;2023-07-31T03:14:02;98027.16;;;13.21;98.58
77799;BME280;66989;50.426;15.352;2023-07-31T03:16:27;98028.16;;;13.20;98.45
77799;BME280;66989;50.426;15.352;2023-07-31T03:18:54;98024.41;;;13.23;99.05
77799;BME280;66989;50.426;15.352;2023-07-31T03:21:19;98031.22;;;13.26;99.32
77799;BME280;66989;50.426;15.352;2023-07-31T03:23:44;98025.81;;;13.27;98.75
77799;BME280;66989;50.426;15.352;2023-07-31T03:26:10;98022.84;;;13.30;99.20
77799;BME280;66989;50.426;15.352;2023-07-31T03:28:35;98029.69;;;13.33;98.71
77799;BME280;66989;50.426;15.352;2023-07-31T03:31:01;98029.56;;;13.34;98.97
77799;BME280;66989;50.426;15.352;2023-07-31T03:33:26;98031.38;;;13.34;98.75
77799;BME280;66989;50.426;15.352;2023-07-31T03:35:52;98029.41;;;13.36;98.62
77799;BME280;66989;50.426;15.352;2023-07-31T03:38:18;98033.72;;;13.37;98.59
77799;BME280;66989;50.426;15.352;2023-07-31T03:40:43;98014.75;;;13.41;98.67
77799;BME280;66989;50.426;15.352;2023-07-31T03:43:08;98012.69;;;13.45;98.70
77799;BME280;66989;50.426;15.352;2023-07-31T03:45:34;98019.66;;;13.46;98.28
77799;BME280;66989;50.426;15.352;2023-07-31T03:47:59;98025.66;;;13.48;98.00
77799;BME280;66989;50.426;15.352;2023-07-31T03:50:25;98024.81;;;13.47;98.07
77799;BME280;66989;50.426;15.352;2023-07-31T03:52:50;98019.66;;;13.46;97.34
77799;BME280;66989;50.426;15.352;2023-07-31T03:55:16;98022.59;;;13.43;97.30
77799;BME280;66989;50.426;15.352;2023-07-31T03:57:41;98021.75;;;13.42;97.14
77799;BME280;66989;50.426;15.352;2023-07-31T04:00:07;98023.44;;;13.43;97.03
77799;BME280;66989;50.426;15.352;2023-07-31T04:02:32;98023.44;;;13.43;96.94
77799;BME280;66989;50.426;15.352;2023-07-31T04:04:58;98033.88;;;13.45;96.56
77799;BME280;66989;50.426;15.352;2023-07-31T04:07:23;98033.19;;;13.43;96.11
77799;BME280;66989;50.426;15.352;2023-07-31T04:09:48;98041.66;;;13.46;96.63
77799;BME280;66989;50.426;15.352;2023-07-31T04:12:14;98028.00;;;13.51;96.03
77799;BME280;66989;50.426;15.352;2023-07-31T04:14:39;98029.69;;;13.52;95.41
77799;BME280;66989;50.426;15.352;2023-07-31T04:17:05;98034.03;;;13.53;95.42
77799;BME280;66989;50.426;15.352;2023-07-31T04:19:30;98034.13;;;13.52;94.81
77799;BME280;66989;50.426;15.352;2023-07-31T04:21:56;98034.84;;;13.54;95.16
77799;BME280;66989;50.426;15.352;2023-07-31T04:24:21;98038.03;;;13.57;95.75
77799;BME280;66989;50.426;15.352;2023-07-31T04:26:53;98032.47;;;13.60;94.95
77799;BME280;66989;50.426;15.352;2023-07-31T04:29:19;98031.50;;;13.61;94.56
77799;BME280;66989;50.426;15.352;2023-07-31T04:31:44;98036.09;;;13.59;94.54
77799;BME280;66989;50.426;15.352;2023-07-31T04:34:09;98036.09;;;13.59;94.71
77799;BME280;66989;50.426;15.352;2023-07-31T04:36:36;98030.81;;;13.59;94.58
77799;BME280;66989;50.426;15.352;2023-07-31T04:39:01;98024.53;;;13.60;94.57
77799;BME280;66989;50.426;15.352;2023-07-31T04:41:27;98028.69;;;13.63;94.75
77799;BME280;66989;50.426;15.352;2023-07-31T04:43:53;98029.09;;;13.68;95.31
77799;BME280;66989;50.426;15.352;2023-07-31T04:46:18;98035.69;;;13.73;94.98
77799;BME280;66989;50.426;15.352;2023-07-31T04:48:43;98033.44;;;13.79;94.27
77799;BME280;66989;50.426;15.352;2023-07-31T04:51:09;98033.59;;;13.87;94.43
77799;BME280;66989;50.426;15.352;2023-07-31T04:53:35;98026.03;;;13.92;94.24
77799;BME280;66989;50.426;15.352;2023-07-31T04:56:01;98036.22;;;13.96;94.18
77799;BME280;66989;50.426;15.352;2023-07-31T04:58:26;98028.13;;;13.98;93.88
77799;BME280;66989;50.426;15.352;2023-07-31T05:00:52;98028.69;;;14.02;94.08
77799;BME280;66989;50.426;15.352;2023-07-31T05:03:17;98031.88;;;14.05;93.78
77799;BME280;66989;50.426;15.352;2023-07-31T05:05:42;98024.47;;;14.09;94.29
77799;BME280;66989;50.426;15.352;2023-07-31T05:08:08;98032.81;;;14.14;94.35
77799;BME280;66989;50.426;15.352;2023-07-31T05:10:33;98030.56;;;14.19;94.06
77799;BME280;66989;50.426;15.352;2023-07-31T05:12:59;98025.16;;;14.20;93.33
77799;BME280;66989;50.426;15.352;2023-07-31T05:15:24;98029.47;;;14.21;94.35
77799;BME280;66989;50.426;15.352;2023-07-31T05:17:49;98030.97;;;14.24;93.85
77799;BME280;66989;50.426;15.352;2023-07-31T05:20:15;98021.19;;;14.24;94.63
77799;BME280;66989;50.426;15.352;2023-07-31T05:22:40;98021.19;;;14.24;94.70
77799;BME280;66989;50.426;15.352;2023-07-31T05:25:06;98014.22;;;14.23;94.94
77799;BME280;66989;50.426;15.352;2023-07-31T05:27:32;98015.78;;;14.26;94.94
77799;BME280;66989;50.426;15.352;2023-07-31T05:29:57;98019.81;;;14.30;95.41
77799;BME280;66989;50.426;15.352;2023-07-31T05:32:23;98023.69;;;14.36;94.88
77799;BME280;66989;50.426;15.352;2023-07-31T05:34:51;98021.44;;;14.41;95.22
77799;BME280;66989;50.426;15.352;2023-07-31T05:37:17;98025.19;;;14.48;95.40
77799;BME280;66989;50.426;15.352;2023-07-31T05:39:42;98028.91;;;14.55;94.75
77799;BME280;66989;50.426;15.352;2023-07-31T05:42:08;98026.66;;;14.60;94.38
77799;BME280;66989;50.426;15.352;2023-07-31T05:44:33;98036.69;;;14.66;93.97
77799;BME280;66989;50.426;15.352;2023-07-31T05:46:59;98036.09;;;14.72;93.80
77799;BME280;66989;50.426;15.352;2023-07-31T05:49:24;98036.34;;;14.79;93.62
77799;BME280;66989;50.426;15.352;2023-07-31T05:51:49;98032.09;;;14.86;92.76
77799;BME280;66989;50.426;15.352;2023-07-31T05:54:15;98037.66;;;14.93;92.76
77799;BME280;66989;50.426;15.352;2023-07-31T05:56:40;98030.47;;;15.03;92.44
77799;BME280;66989;50.426;15.352;2023-07-31T05:59:05;98027.16;;;15.19;92.13
77799;BME280;66989;50.426;15.352;2023-07-31T06:01:31;98023.75;;;15.26;90.81
77799;BME280;66989;50.426;15.352;2023-07-31T06:03:58;98025.22;;;15.39;90.87
77799;BME280;66989;50.426;15.352;2023-07-31T06:06:23;98032.97;;;15.50;90.08
77799;BME280;66989;50.426;15.352;2023-07-31T06:08:48;98029.97;;;15.53;89.56
77799;BME280;66989;50.426;15.352;2023-07-31T06:11:15;98024.91;;;15.60;89.01
77799;BME280;66989;50.426;15.352;2023-07-31T06:13:40;98035.38;;;15.61;88.37
77799;BME280;66989;50.426;15.352;2023-07-31T06:16:05;98032.41;;;15.64;87.52
77799;BME280;66989;50.426;15.352;2023-07-31T06:18:34;98028.78;;;15.65;86.62
77799;BME280;66989;50.426;15.352;2023-07-31T06:20:59;98034.22;;;15.81;86.92
77799;BME280;66989;50.426;15.352;2023-07-31T06:23:24;98033.59;;;15.88;86.06
77799;BME280;66989;50.426;15.352;2023-07-31T06:25:50;98034.81;;;15.93;85.86
77799;BME280;66989;50.426;15.352;2023-07-31T06:28:15;98035.16;;;15.98;84.95
77799;BME280;66989;50.426;15.352;2023-07-31T06:30:40;98033.19;;;16.00;84.39
77799;BME280;66989;50.426;15.352;2023-07-31T06:33:06;98026.63;;;16.13;84.16
77799;BME280;66989;50.426;15.352;2023-07-31T06:35:31;98031.16;;;16.20;82.69
77799;BME280;66989;50.426;15.352;2023-07-31T06:37:57;98030.47;;;16.18;82.68
77799;BME280;66989;50.426;15.352;2023-07-31T06:40:22;98015.16;;;16.12;82.60
77799;BME280;66989;50.426;15.352;2023-07-31T06:42:48;98023.06;;;16.04;83.28
77799;BME280;66989;50.426;15.352;2023-07-31T06:45:14;98015.19;;;15.94;84.07
77799;BME280;66989;50.426;15.352;2023-07-31T06:47:39;98019.88;;;16.00;84.00
77799;BME280;66989;50.426;15.352;2023-07-31T06:50:05;98017.22;;;16.00;84.56
77799;BME280;66989;50.426;15.352;2023-07-31T06:52:30;98012.44;;;16.04;84.10
77799;BME280;66989;50.426;15.352;2023-07-31T06:55:03;98010.69;;;15.95;85.40
77799;BME280;66989;50.426;15.352;2023-07-31T06:57:29;98010.41;;;15.98;85.63
77799;BME280;66989;50.426;15.352;2023-07-31T06:59:55;98003.78;;;16.02;84.74
77799;BME280;66989;50.426;15.352;2023-07-31T07:02:20;98004.41;;;16.22;84.47
77799;BME280;66989;50.426;15.352;2023-07-31T07:04:45;97996.25;;;16.23;84.16
77799;BME280;66989;50.426;15.352;2023-07-31T07:07:11;98007.28;;;16.37;84.74
77799;BME280;66989;50.426;15.352;2023-07-31T07:09:36;98015.50;;;16.43;82.85
77799;BME280;66989;50.426;15.352;2023-07-31T07:12:02;98015.81;;;16.40;82.54
77799;BME280;66989;50.426;15.352;2023-07-31T07:14:27;98013.59;;;16.27;81.30
77799;BME280;66989;50.426;15.352;2023-07-31T07:16:52;98017.22;;;16.26;81.77
77799;BME280;66989;50.426;15.352;2023-07-31T07:19:18;98019.88;;;16.26;81.60
77799;BME280;66989;50.426;15.352;2023-07-31T07:21:43;98015.78;;;16.32;80.84
77799;BME280;66989;50.426;15.352;2023-07-31T07:24:09;98017.06;;;16.28;80.52
77799;BME280;66989;50.426;15.352;2023-07-31T07:26:34;98014.91;;;16.31;80.99
77799;BME280;66989;50.426;15.352;2023-07-31T07:28:59;98016.50;;;16.42;80.99
77799;BME280;66989;50.426;15.352;2023-07-31T07:31:28;98020.13;;;16.41;80.23
77799;BME280;66989;50.426;15.352;2023-07-31T07:33:53;98018.00;;;16.45;80.48
77799;BME280;66989;50.426;15.352;2023-07-31T07:36:19;98013.59;;;16.53;80.75
77799;BME280;66989;50.426;15.352;2023-07-31T07:38:44;98013.13;;;16.66;80.02
77799;BME280;66989;50.426;15.352;2023-07-31T07:41:10;98012.28;;;16.66;79.27
77799;BME280;66989;50.426;15.352;2023-07-31T07:43:35;98011.66;;;16.72;79.58
77799;BME280;66989;50.426;15.352;2023-07-31T07:46:00;98004.22;;;16.83;79.85
77799;BME280;66989;50.426;15.352;2023-07-31T07:48:26;97995.25;;;17.01;79.55
77799;BME280;66989;50.426;15.352;2023-07-31T07:50:51;98003.81;;;17.21;78.45
77799;BME280;66989;50.426;15.352;2023-07-31T07:53:17;97998.47;;;17.45;77.53
77799;BME280;66989;50.426;15.352;2023-07-31T07:55:42;98000.88;;;17.73;76.42
77799;BME280;66989;50.426;15.352;2023-07-31T07:58:08;98005.19;;;17.90;75.10
77799;BME280;66989;50.426;15.352;2023-07-31T08:00:33;97996.97;;;18.16;74.88
77799;BME280;66989;50.426;15.352;2023-07-31T08:02:58;97993.22;;;18.41;74.17
77799;BME280;66989;50.426;15.352;2023-07-31T08:05:24;97991.13;;;18.68;73.22
77799;BME280;66989;50.426;15.352;2023-07-31T08:07:50;97992.38;;;18.88;70.95
77799;BME280;66989;50.426;15.352;2023-07-31T08:10:15;97990.34;;;18.99;71.15
77799;BME280;66989;50.426;15.352;2023-07-31T08:12:40;97984.84;;;19.23;71.07
77799;BME280;66989;50.426;15.352;2023-07-31T08:15:06;97987.13;;;19.26;71.24
77799;BME280;66989;50.426;15.352;2023-07-31T08:17:31;97980.94;;;19.11;71.67
77799;BME280;66989;50.426;15.352;2023-07-31T08:19:57;97986.19;;;18.96;72.32
77799;BME280;66989;50.426;15.352;2023-07-31T08:22:23;97988.84;;;18.96;72.79
77799;BME280;66989;50.426;15.352;2023-07-31T08:24:49;97990.03;;;18.93;72.85
77799;BME280;66989;50.426;15.352;2023-07-31T08:27:14;97993.09;;;18.82;73.69
77799;BME280;66989;50.426;15.352;2023-07-31T08:29:39;97992.38;;;18.88;73.67
77799;BME280;66989;50.426;15.352;2023-07-31T08:32:05;98002.44;;;18.86;73.67
77799;BME280;66989;50.426;15.352;2023-07-31T08:34:31;97994.19;;;18.96;73.80
77799;BME280;66989;50.426;15.352;2023-07-31T08:36:56;98000.09;;;19.14;73.49
77799;BME280;66989;50.426;15.352;2023-07-31T08:39:21;97993.94;;;19.37;73.42
77799;BME280;66989;50.426;15.352;2023-07-31T08:41:47;98001.41;;;19.41;72.11
77799;BME280;66989;50.426;15.352;2023-07-31T08:44:13;97986.91;;;19.59;71.98
77799;BME280;66989;50.426;15.352;2023-07-31T08:46:41;97990.78;;;19.79;71.79
77799;BME280;66989;50.426;15.352;2023-07-31T08:49:07;97990.53;;;19.89;71.31
77799;BME280;66989;50.426;15.352;2023-07-31T08:51:36;97989.09;;;20.16;70.94
77799;BME280;66989;50.426;15.352;2023-07-31T08:54:01;97991.97;;;20.29;68.45
77799;BME280;66989;50.426;15.352;2023-07-31T08:56:30;97993.25;;;20.33;68.94
77799;BME280;66989;50.426;15.352;2023-07-31T08:58:57;97998.97;;;20.45;68.51
77799;BME280;66989;50.426;15.352;2023-07-31T09:01:23;97990.66;;;20.55;68.06
77799;BME280;66989;50.426;15.352;2023-07-31T09:03:50;97996.84;;;20.55;67.97
77799;BME280;66989;50.426;15.352;2023-07-31T09:06:18;97994.63;;;20.44;68.19
77799;BME280;66989;50.426;15.352;2023-07-31T09:08:45;97997.88;;;20.39;67.08
77799;BME280;66989;50.426;15.352;2023-07-31T09:11:10;97992.97;;;20.13;66.42
77799;BME280;66989;50.426;15.352;2023-07-31T09:13:39;97994.47;;;20.16;67.37
77799;BME280;66989;50.426;15.352;2023-07-31T09:16:05;98000.81;;;20.15;68.29
77799;BME280;66989;50.426;15.352;2023-07-31T09:18:30;97994.94;;;20.19;67.97
77799;BME280;66989;50.426;15.352;2023-07-31T09:21:05;97992.34;;;20.26;66.74
77799;BME280;66989;50.426;15.352;2023-07-31T09:23:45;97983.38;;;20.34;65.74
77799;BME280;66989;50.426;15.352;2023-07-31T09:26:11;97994.16;;;20.55;64.30
77799;BME280;66989;50.426;15.352;2023-07-31T09:28:37;97989.56;;;20.64;63.73
77799;BME280;66989;50.426;15.352;2023-07-31T09:31:02;97985.13;;;20.71;64.16
77799;BME280;66989;50.426;15.352;2023-07-31T09:33:27;97987.09;;;20.77;64.19
77799;BME280;66989;50.426;15.352;2023-07-31T09:35:53;97978.91;;;20.85;63.80
77799;BME280;66989;50.426;15.352;2023-07-31T09:38:18;97971.41;;;20.95;63.31
77799;BME280;66989;50.426;15.352;2023-07-31T09:40:48;97967.03;;;21.09;62.82
77799;BME280;66989;50.426;15.352;2023-07-31T09:43:19;97973.50;;;21.36;62.63
77799;BME280;66989;50.426;15.352;2023-07-31T09:45:45;97955.75;;;21.57;61.66
77799;BME280;66989;50.426;15.352;2023-07-31T09:48:18;97961.94;;;21.78;59.97
77799;BME280;66989;50.426;15.352;2023-07-31T09:50:45;97960.00;;;21.94;59.91
77799;BME280;66989;50.426;15.352;2023-07-31T09:53:11;97955.94;;;22.04;59.68
77799;BME280;66989;50.426;15.352;2023-07-31T09:55:37;97946.44;;;22.02;59.57
77799;BME280;66989;50.426;15.352;2023-07-31T09:58:05;97946.22;;;22.03;59.02
77799;BME280;66989;50.426;15.352;2023-07-31T10:00:31;97947.22;;;21.96;58.89
77799;BME280;66989;50.426;15.352;2023-07-31T10:03:02;97941.91;;;22.09;59.02
77799;BME280;66989;50.426;15.352;2023-07-31T10:05:32;97939.91;;;22.18;57.02
77799;BME280;66989;50.426;15.352;2023-07-31T10:07:59;97931.06;;;22.24;56.71
77799;BME280;66989;50.426;15.352;2023-07-31T10:10:25;97942.56;;;22.11;57.19
77799;BME280;66989;50.426;15.352;2023-07-31T10:12:52;97935.56;;;22.17;57.64
77799;BME280;66989;50.426;15.352;2023-07-31T10:15:18;97939.56;;;21.99;58.86
77799;BME280;66989;50.426;15.352;2023-07-31T10:17:47;97942.66;;;21.96;59.10
77799;BME280;66989;50.426;15.352;2023-07-31T10:20:14;97944.97;;;21.71;59.88
77799;BME280;66989;50.426;15.352;2023-07-31T10:22:41;97936.34;;;21.33;59.51
77799;BME280;66989;50.426;15.352;2023-07-31T10:25:07;97933.00;;;20.88;60.21
77799;BME280;66989;50.426;15.352;2023-07-31T10:27:34;97926.66;;;20.74;61.38
77799;BME280;66989;50.426;15.352;2023-07-31T10:30:02;97930.81;;;20.77;61.53
77799;BME280;66989;50.426;15.352;2023-07-31T10:32:29;97921.84;;;20.70;61.84
77799;BME280;66989;50.426;15.352;2023-07-31T10:34:55;97928.75;;;20.79;62.22
77799;BME280;66989;50.426;15.352;2023-07-31T10:37:36;97923.47;;;20.86;61.57
77799;BME280;66989;50.426;15.352;2023-07-31T10:40:09;97930.88;;;20.84;60.99
77799;BME280;66989;50.426;15.352;2023-07-31T10:42:37;97925.88;;;20.81;61.78
77799;BME280;66989;50.426;15.352;2023-07-31T10:45:08;97923.13;;;20.74;61.79
77799;BME280;66989;50.426;15.352;2023-07-31T10:47:45;97921.00;;;20.84;60.82
77799;BME280;66989;50.426;15.352;2023-07-31T10:50:22;97918.47;;;21.19;60.38
77799;BME280;66989;50.426;15.352;2023-07-31T10:52:50;97916.47;;;21.27;59.18
77799;BME280;66989;50.426;15.352;2023-07-31T10:55:31;97918.97;;;21.50;59.78
77799;BME280;66989;50.426;15.352;2023-07-31T10:58:04;97912.72;;;21.65;59.02
77799;BME280;66989;50.426;15.352;2023-07-31T11:00:31;97906.81;;;21.76;58.78
77799;BME280;66989;50.426;15.352;2023-07-31T11:10:49;97897.81;;;21.62;59.13
77799;BME280;66989;50.426;15.352;2023-07-31T11:13:14;97896.66;;;21.71;58.59
77799;BME280;66989;50.426;15.352;2023-07-31T11:15:40;97892.56;;;21.75;57.87
77799;BME280;66989;50.426;15.352;2023-07-31T11:18:05;97880.81;;;22.18;57.51
77799;BME280;66989;50.426;15.352;2023-07-31T11:20:33;97877.13;;;22.67;56.25
77799;BME280;66989;50.426;15.352;2023-07-31T11:23:01;97879.13;;;23.59;55.05
77799;BME280;66989;50.426;15.352;2023-07-31T11:25:29;97867.81;;;24.35;51.98
77799;BME280;66989;50.426;15.352;2023-07-31T11:27:55;97854.09;;;24.81;50.61
77799;BME280;66989;50.426;15.352;2023-07-31T11:30:22;97856.25;;;25.04;48.72
77799;BME280;66989;50.426;15.352;2023-07-31T11:32:47;97853.19;;;25.01;48.52
77799;BME280;66989;50.426;15.352;2023-07-31T11:35:12;97849.53;;;25.45;48.12
77799;BME280;66989;50.426;15.352;2023-07-31T11:37:42;97847.19;;;25.99;46.60
77799;BME280;66989;50.426;15.352;2023-07-31T11:40:08;97837.81;;;26.20;46.77
77799;BME280;66989;50.426;15.352;2023-07-31T11:42:37;97834.78;;;26.28;46.47
77799;BME280;66989;50.426;15.352;2023-07-31T11:45:04;97832.41;;;26.20;46.39
77799;BME280;66989;50.426;15.352;2023-07-31T11:47:30;97826.78;;;26.69;45.61
77799;BME280;66989;50.426;15.352;2023-07-31T11:49:57;97825.66;;;26.89;45.39
77799;BME280;66989;50.426;15.352;2023-07-31T11:52:23;97820.09;;;26.72;44.37
77799;BME280;66989;50.426;15.352;2023-07-31T11:54:50;97814.81;;;26.77;44.67
77799;BME280;66989;50.426;15.352;2023-07-31T11:57:16;97827.09;;;27.45;44.27
77799;BME280;66989;50.426;15.352;2023-07-31T11:59:42;97821.81;;;27.50;43.04
77799;BME280;66989;50.426;15.352;2023-07-31T12:02:08;97813.78;;;27.55;43.18
77799;BME280;66989;50.426;15.352;2023-07-31T12:04:34;97818.16;;;27.33;42.55
77799;BME280;66989;50.426;15.352;2023-07-31T12:07:00;97812.50;;;27.23;43.26
77799;BME280;66989;50.426;15.352;2023-07-31T12:09:26;97805.78;;;26.83;45.20
77799;BME280;66989;50.426;15.352;2023-07-31T12:11:51;97812.88;;;26.36;45.48
77799;BME280;66989;50.426;15.352;2023-07-31T12:14:24;97812.63;;;25.82;46.59
77799;BME280;66989;50.426;15.352;2023-07-31T12:16:58;97811.22;;;25.30;48.23
77799;BME280;66989;50.426;15.352;2023-07-31T12:19:27;97808.03;;;24.83;50.52
77799;BME280;66989;50.426;15.352;2023-07-31T12:21:55;97801.06;;;24.69;51.17
77799;BME280;66989;50.426;15.352;2023-07-31T12:24:20;97810.53;;;24.46;51.39
77799;BME280;66989;50.426;15.352;2023-07-31T12:26:46;97808.13;;;24.31;52.40
77799;BME280;66989;50.426;15.352;2023-07-31T12:29:12;97803.22;;;24.08;53.20
77799;BME280;66989;50.426;15.352;2023-07-31T12:31:41;97808.25;;;23.92;53.40
77799;BME280;66989;50.426;15.352;2023-07-31T12:34:15;97791.72;;;23.75;53.68
77799;BME280;66989;50.426;15.352;2023-07-31T12:36:42;97792.91;;;23.99;53.23
77799;BME280;66989;50.426;15.352;2023-07-31T12:39:08;97794.59;;;23.87;53.47
77799;BME280;66989;50.426;15.352;2023-07-31T12:41:33;97794.25;;;23.63;52.90
77799;BME280;66989;50.426;15.352;2023-07-31T12:43:58;97792.56;;;23.69;52.91
77799;BME280;66989;50.426;15.352;2023-07-31T12:46:24;97790.88;;;23.74;53.22
77799;BME280;66989;50.426;15.352;2023-07-31T12:48:49;97769.28;;;23.94;53.79
77799;BME280;66989;50.426;15.352;2023-07-31T12:51:15;97770.03;;;24.21;52.64
77799;BME280;66989;50.426;15.352;2023-07-31T12:53:40;97771.44;;;24.30;51.81
77799;BME280;66989;50.426;15.352;2023-07-31T12:56:05;97760.78;;;24.49;51.40